Pagrindinis puslapis
METAR-TAF:

METAR-TAF

Oro uostai :

Kiurasao, Nyderlandų Antilai

platuma: 12-12N, ilguma: 068-58W, Aukštis: 9 m

Dabartinis oras

Ataskaita buvo paskelbta 44 minutes, ne 12:00 UTC
Vėjas 4 kt iš Pietų/Pietryčių
Temperatūra 29°C
Drėgmė 74%
Slėgis 1011 hPa
Matomumas 10 km arba daugiau
Išsisklaidę debesys ne aukštis 1800 ft

METAR: TNCC 171200Z AUTO 15004KT 9999 SCT018 29/24 Q1011 NOSIG

Laikas: 08:44 (12:44 UTC)

Prognozė

Prognozė galioja nuo 17 metu 11 UTC su 17 metu 15 UTC
Vėjas 7 kt iš Rytų/Pietryčių
Matomumas 10 km arba daugiau
Išsisklaidę debesys ne aukštis 2000 ft
Tikimybė 30% :
Laikinai
nuo 17 metu 12 UTC su 17 metu 14 UTC
Su prošvaistėmis ne aukštis 1400 ft

TAF: TNCC 171115 1712/1812 12007KT 9999 SCT020 PROB30 TEMPO 1712/1714 BKN014

Orai ataskaitas ir orų prognozės (METAR, TAF).

turimą stotys yra geltonos ir raudonos taškus žemėlapyje.

Perkelti pele per norėdami pamatyti stoties vardą.

Tada spustelėkite, norėdami matyti oro stebėjimo ir prognozės.

Norėdami pakeisti žemėlapį: spustelėkite ant žalios mygtukų su juodo kryžiaus žemyn,; žalią mygtuką su brūkšneliu, jei norite nutolinti; arba žalių rodyklių gretimoms žemėlapius.


METAR-TAF: